Huvudsida
METAR-TAF:

METAR-TAF

Flygplatser :

Damascus Int. Airport

Damaskus, Syrien

latitud: 33-25N, longitud: 036-31E, höjd: 608 m

Aktuellt väderrapport

Denna rapport gjordes för 51 minuter sedan, klockan 20:00 UTC
Vind 10 kt från syd/sydväst
Temperatur 12°C
Fuktighet 88%
Tryck 1022 hPa
Sikt: 8000 m
Spridda moln på en höjd av 2600 ft

METAR: OSDI 162000Z 21010KT 8000 SCT026 12/10 Q1022

Tid: 22:51 (20:51 UTC)

Väderprognos

Denna rapport gjordes för 3 timmar och 51 minuter sedan, klockan 17:00 UTC
Prognos gäller från 16 kl. 18 UTC till 17 kl. 24 UTC
Vind 10 kt från sydväst
Sikt: 8000 m
Spridda moln på en höjd av 3000 ft
Brutna moln på en höjd av 10000 ft
Temporärt
mellan 17 och 00 UTC
Vind 3 kt varierande vindriktning

TAF: OSDI 161700Z 1618/1724 22010KT 8000 SCT030 BKN100 TEMPO 17001/1706 VRB03KT 4000BR

Aktuella väderrapporter och prognoser från 4000 flygplatser (METAR- och TAF-rapporter).

De tillgängliga stationerna syns som gula och röda prickar på kartan.

För musen över prickarna för att se namnen på stationerna.

Klicka sedan för att få väderrapporter och prognoser.

För att ändra kartan: Klicka på de gröna knapparna med ett svart kors på för att zooma in; den gröna knappen med ett streck på för att zooma ut; eller på de gröna pilarna för angränsande kartor.


METAR-TAF: